sensor_id;sensor_type;location;lat;lon;timestamp;P1;durP1;ratioP1;P2;durP2;ratioP2
60935;SDS011;46804;51.786;19.520;2022-07-23T00:01:24;10.88;;;7.18;;
60935;SDS011;46804;51.786;19.520;2022-07-23T00:05:25;9.75;;;7.07;;
60935;SDS011;46804;51.786;19.520;2022-07-23T00:09:25;8.88;;;6.80;;
60935;SDS011;46804;51.786;19.520;2022-07-23T00:13:26;9.13;;;6.40;;
60935;SDS011;46804;51.786;19.520;2022-07-23T00:17:27;8.57;;;6.55;;
60935;SDS011;46804;51.786;19.520;2022-07-23T00:21:27;11.45;;;7.22;;
60935;SDS011;46804;51.786;19.520;2022-07-23T00:25:28;9.75;;;7.07;;
60935;SDS011;46804;51.786;19.520;2022-07-23T00:29:29;9.25;;;7.15;;
60935;SDS011;46804;51.786;19.520;2022-07-23T00:33:29;10.48;;;7.35;;
60935;SDS011;46804;51.786;19.520;2022-07-23T00:37:31;11.60;;;7.38;;
60935;SDS011;46804;51.786;19.520;2022-07-23T00:41:31;10.82;;;7.20;;
60935;SDS011;46804;51.786;19.520;2022-07-23T00:45:32;9.77;;;7.72;;
60935;SDS011;46804;51.786;19.520;2022-07-23T00:49:32;10.65;;;6.72;;
60935;SDS011;46804;51.786;19.520;2022-07-23T00:53:33;9.60;;;7.13;;
60935;SDS011;46804;51.786;19.520;2022-07-23T00:57:34;14.93;;;8.10;;
60935;SDS011;46804;51.786;19.520;2022-07-23T01:01:36;12.40;;;7.18;;
60935;SDS011;46804;51.786;19.520;2022-07-23T01:05:37;11.13;;;7.75;;
60935;SDS011;46804;51.786;19.520;2022-07-23T01:09:38;9.07;;;7.38;;
60935;SDS011;46804;51.786;19.520;2022-07-23T01:13:45;10.43;;;7.32;;
60935;SDS011;46804;51.786;19.520;2022-07-23T01:17:45;10.00;;;7.75;;
60935;SDS011;46804;51.786;19.520;2022-07-23T01:21:47;11.07;;;8.15;;
60935;SDS011;46804;51.786;19.520;2022-07-23T01:25:51;10.40;;;8.43;;
60935;SDS011;46804;51.786;19.520;2022-07-23T01:29:54;10.65;;;7.35;;
60935;SDS011;46804;51.786;19.520;2022-07-23T01:33:55;11.00;;;7.15;;
60935;SDS011;46804;51.786;19.520;2022-07-23T01:37:56;10.48;;;7.07;;
60935;SDS011;46804;51.786;19.520;2022-07-23T01:41:56;9.40;;;6.85;;
60935;SDS011;46804;51.786;19.520;2022-07-23T01:45:57;9.98;;;7.35;;
60935;SDS011;46804;51.786;19.520;2022-07-23T01:49:57;11.25;;;7.47;;
60935;SDS011;46804;51.786;19.520;2022-07-23T01:53:58;10.13;;;7.20;;
60935;SDS011;46804;51.786;19.520;2022-07-23T01:57:58;8.90;;;7.15;;
60935;SDS011;46804;51.786;19.520;2022-07-23T02:01:59;12.90;;;7.93;;
60935;SDS011;46804;51.786;19.520;2022-07-23T02:06:00;11.90;;;8.07;;
60935;SDS011;46804;51.786;19.520;2022-07-23T02:10:00;10.32;;;7.63;;
60935;SDS011;46804;51.786;19.520;2022-07-23T02:14:00;12.55;;;8.40;;
60935;SDS011;46804;51.786;19.520;2022-07-23T02:18:01;11.15;;;7.82;;
60935;SDS011;46804;51.786;19.520;2022-07-23T02:22:02;11.68;;;7.35;;
60935;SDS011;46804;51.786;19.520;2022-07-23T02:26:02;10.02;;;7.43;;
60935;SDS011;46804;51.786;19.520;2022-07-23T02:30:03;10.85;;;7.72;;
60935;SDS011;46804;51.786;19.520;2022-07-23T02:34:04;11.02;;;7.10;;
60935;SDS011;46804;51.786;19.520;2022-07-23T02:38:05;13.10;;;7.45;;
60935;SDS011;46804;51.786;19.520;2022-07-23T02:42:05;10.68;;;8.32;;
60935;SDS011;46804;51.786;19.520;2022-07-23T02:46:06;10.38;;;7.30;;
60935;SDS011;46804;51.786;19.520;2022-07-23T02:50:07;11.82;;;9.18;;
60935;SDS011;46804;51.786;19.520;2022-07-23T02:54:07;9.75;;;7.70;;
60935;SDS011;46804;51.786;19.520;2022-07-23T02:58:08;12.80;;;8.45;;
60935;SDS011;46804;51.786;19.520;2022-07-23T03:02:08;12.77;;;8.88;;
60935;SDS011;46804;51.786;19.520;2022-07-23T03:06:09;12.45;;;7.43;;
60935;SDS011;46804;51.786;19.520;2022-07-23T03:10:10;13.27;;;8.50;;
60935;SDS011;46804;51.786;19.520;2022-07-23T03:14:10;13.82;;;8.95;;
60935;SDS011;46804;51.786;19.520;2022-07-23T03:18:13;12.70;;;8.57;;
60935;SDS011;46804;51.786;19.520;2022-07-23T03:22:14;15.20;;;9.80;;
60935;SDS011;46804;51.786;19.520;2022-07-23T03:26:14;15.07;;;9.70;;
60935;SDS011;46804;51.786;19.520;2022-07-23T03:30:15;13.88;;;10.57;;
60935;SDS011;46804;51.786;19.520;2022-07-23T03:34:15;13.52;;;9.85;;
60935;SDS011;46804;51.786;19.520;2022-07-23T03:38:16;13.02;;;9.00;;
60935;SDS011;46804;51.786;19.520;2022-07-23T03:42:16;14.73;;;9.43;;
60935;SDS011;46804;51.786;19.520;2022-07-23T03:46:17;10.93;;;7.75;;
60935;SDS011;46804;51.786;19.520;2022-07-23T03:50:17;9.80;;;8.18;;
60935;SDS011;46804;51.786;19.520;2022-07-23T03:54:18;12.75;;;9.52;;
60935;SDS011;46804;51.786;19.520;2022-07-23T03:58:18;13.80;;;9.32;;
60935;SDS011;46804;51.786;19.520;2022-07-23T04:02:19;15.10;;;9.88;;
60935;SDS011;46804;51.786;19.520;2022-07-23T04:06:20;14.88;;;9.32;;
60935;SDS011;46804;51.786;19.520;2022-07-23T04:10:20;14.77;;;10.18;;
60935;SDS011;46804;51.786;19.520;2022-07-23T04:14:21;15.48;;;9.65;;
60935;SDS011;46804;51.786;19.520;2022-07-23T04:18:21;17.27;;;8.95;;
60935;SDS011;46804;51.786;19.520;2022-07-23T04:22:23;12.85;;;8.52;;
60935;SDS011;46804;51.786;19.520;2022-07-23T04:26:24;9.93;;;7.57;;
60935;SDS011;46804;51.786;19.520;2022-07-23T04:30:25;10.15;;;7.28;;
60935;SDS011;46804;51.786;19.520;2022-07-23T04:34:25;9.98;;;6.80;;
60935;SDS011;46804;51.786;19.520;2022-07-23T04:38:26;8.32;;;6.43;;
60935;SDS011;46804;51.786;19.520;2022-07-23T04:42:27;8.18;;;6.10;;
60935;SDS011;46804;51.786;19.520;2022-07-23T04:46:28;8.30;;;5.90;;
60935;SDS011;46804;51.786;19.520;2022-07-23T04:50:29;8.77;;;6.00;;
60935;SDS011;46804;51.786;19.520;2022-07-23T04:54:29;7.57;;;6.10;;
60935;SDS011;46804;51.786;19.520;2022-07-23T04:58:30;7.30;;;5.45;;
60935;SDS011;46804;51.786;19.520;2022-07-23T05:02:31;9.00;;;5.43;;
60935;SDS011;46804;51.786;19.520;2022-07-23T05:06:32;7.45;;;5.30;;
60935;SDS011;46804;51.786;19.520;2022-07-23T05:10:32;12.48;;;5.30;;
60935;SDS011;46804;51.786;19.520;2022-07-23T05:14:33;5.47;;;4.50;;
60935;SDS011;46804;51.786;19.520;2022-07-23T05:18:34;7.90;;;5.53;;
60935;SDS011;46804;51.786;19.520;2022-07-23T05:22:34;7.70;;;5.45;;
60935;SDS011;46804;51.786;19.520;2022-07-23T05:26:35;8.88;;;5.10;;
60935;SDS011;46804;51.786;19.520;2022-07-23T05:30:35;8.88;;;5.32;;
60935;SDS011;46804;51.786;19.520;2022-07-23T05:34:36;7.80;;;4.85;;
60935;SDS011;46804;51.786;19.520;2022-07-23T05:38:36;8.38;;;5.18;;
60935;SDS011;46804;51.786;19.520;2022-07-23T05:42:37;6.57;;;4.90;;
60935;SDS011;46804;51.786;19.520;2022-07-23T05:46:39;7.77;;;5.20;;
60935;SDS011;46804;51.786;19.520;2022-07-23T05:50:40;5.68;;;4.32;;
60935;SDS011;46804;51.786;19.520;2022-07-23T05:54:40;8.00;;;4.80;;
60935;SDS011;46804;51.786;19.520;2022-07-23T05:58:41;6.43;;;5.07;;
60935;SDS011;46804;51.786;19.520;2022-07-23T06:02:42;7.07;;;5.03;;
60935;SDS011;46804;51.786;19.520;2022-07-23T06:06:43;7.90;;;5.07;;
60935;SDS011;46804;51.786;19.520;2022-07-23T06:10:43;8.50;;;4.72;;
60935;SDS011;46804;51.786;19.520;2022-07-23T06:14:44;11.20;;;5.22;;
60935;SDS011;46804;51.786;19.520;2022-07-23T06:18:44;8.18;;;4.97;;
60935;SDS011;46804;51.786;19.520;2022-07-23T06:22:45;10.00;;;5.05;;
60935;SDS011;46804;51.786;19.520;2022-07-23T06:26:45;6.70;;;5.22;;
60935;SDS011;46804;51.786;19.520;2022-07-23T06:30:46;6.80;;;5.00;;
60935;SDS011;46804;51.786;19.520;2022-07-23T06:34:46;7.53;;;5.45;;
60935;SDS011;46804;51.786;19.520;2022-07-23T06:38:47;7.13;;;5.25;;
60935;SDS011;46804;51.786;19.520;2022-07-23T06:42:48;6.78;;;5.03;;
60935;SDS011;46804;51.786;19.520;2022-07-23T06:46:48;9.40;;;5.47;;
60935;SDS011;46804;51.786;19.520;2022-07-23T06:50:49;8.57;;;5.70;;
60935;SDS011;46804;51.786;19.520;2022-07-23T06:54:52;9.70;;;5.50;;
60935;SDS011;46804;51.786;19.520;2022-07-23T06:58:53;7.10;;;5.50;;
60935;SDS011;46804;51.786;19.520;2022-07-23T07:02:53;8.82;;;5.47;;
60935;SDS011;46804;51.786;19.520;2022-07-23T07:06:54;11.80;;;5.95;;
60935;SDS011;46804;51.786;19.520;2022-07-23T07:10:55;9.65;;;5.18;;
60935;SDS011;46804;51.786;19.520;2022-07-23T07:14:56;7.28;;;5.55;;
60935;SDS011;46804;51.786;19.520;2022-07-23T07:18:57;8.27;;;5.35;;
60935;SDS011;46804;51.786;19.520;2022-07-23T07:22:58;7.68;;;5.47;;
60935;SDS011;46804;51.786;19.520;2022-07-23T07:26:58;7.82;;;6.22;;
60935;SDS011;46804;51.786;19.520;2022-07-23T07:30:59;6.95;;;5.47;;
60935;SDS011;46804;51.786;19.520;2022-07-23T07:34:59;12.63;;;5.88;;
60935;SDS011;46804;51.786;19.520;2022-07-23T07:39:00;7.22;;;5.50;;
60935;SDS011;46804;51.786;19.520;2022-07-23T07:43:00;8.50;;;5.22;;
60935;SDS011;46804;51.786;19.520;2022-07-23T07:47:03;8.48;;;5.47;;
60935;SDS011;46804;51.786;19.520;2022-07-23T07:51:04;8.32;;;5.80;;
60935;SDS011;46804;51.786;19.520;2022-07-23T07:55:07;8.82;;;5.65;;
60935;SDS011;46804;51.786;19.520;2022-07-23T07:59:08;7.32;;;5.50;;
60935;SDS011;46804;51.786;19.520;2022-07-23T08:03:10;10.73;;;5.97;;
60935;SDS011;46804;51.786;19.520;2022-07-23T08:07:11;11.63;;;5.60;;
60935;SDS011;46804;51.786;19.520;2022-07-23T08:11:11;9.15;;;5.20;;
60935;SDS011;46804;51.786;19.520;2022-07-23T08:15:13;10.77;;;5.95;;
60935;SDS011;46804;51.786;19.520;2022-07-23T08:19:16;8.50;;;6.22;;
60935;SDS011;46804;51.786;19.520;2022-07-23T08:23:16;7.80;;;6.13;;
60935;SDS011;46804;51.786;19.520;2022-07-23T08:27:19;8.32;;;5.43;;
60935;SDS011;46804;51.786;19.520;2022-07-23T08:31:20;8.60;;;5.77;;
60935;SDS011;46804;51.786;19.520;2022-07-23T08:35:27;11.18;;;5.68;;
60935;SDS011;46804;51.786;19.520;2022-07-23T08:39:30;8.23;;;5.75;;
60935;SDS011;46804;51.786;19.520;2022-07-23T08:43:31;9.15;;;5.80;;
60935;SDS011;46804;51.786;19.520;2022-07-23T08:47:32;6.90;;;5.90;;
60935;SDS011;46804;51.786;19.520;2022-07-23T08:51:34;12.95;;;5.88;;
60935;SDS011;46804;51.786;19.520;2022-07-23T08:55:34;10.68;;;5.68;;
60935;SDS011;46804;51.786;19.520;2022-07-23T08:59:35;17.38;;;6.18;;
60935;SDS011;46804;51.786;19.520;2022-07-23T09:03:36;10.73;;;5.30;;
60935;SDS011;46804;51.786;19.520;2022-07-23T09:12:14;8.48;;;5.10;;
60935;SDS011;46804;51.786;19.520;2022-07-23T09:16:16;8.95;;;5.95;;
60935;SDS011;46804;51.786;19.520;2022-07-23T09:20:19;7.88;;;5.57;;
60935;SDS011;46804;51.786;19.520;2022-07-23T09:24:19;6.38;;;5.40;;
60935;SDS011;46804;51.786;19.520;2022-07-23T09:28:20;9.75;;;5.55;;
60935;SDS011;46804;51.786;19.520;2022-07-23T09:32:21;6.88;;;5.55;;
60935;SDS011;46804;51.786;19.520;2022-07-23T09:36:28;8.82;;;5.72;;
60935;SDS011;46804;51.786;19.520;2022-07-23T09:40:30;11.77;;;5.75;;
60935;SDS011;46804;51.786;19.520;2022-07-23T09:44:30;8.82;;;5.15;;
60935;SDS011;46804;51.786;19.520;2022-07-23T09:48:41;6.75;;;5.00;;
60935;SDS011;46804;51.786;19.520;2022-07-23T09:52:48;8.18;;;5.45;;
60935;SDS011;46804;51.786;19.520;2022-07-23T09:56:50;11.95;;;5.55;;
60935;SDS011;46804;51.786;19.520;2022-07-23T10:00:51;7.85;;;4.82;;
60935;SDS011;46804;51.786;19.520;2022-07-23T10:04:53;6.88;;;5.95;;
60935;SDS011;46804;51.786;19.520;2022-07-23T10:08:58;7.55;;;5.70;;
60935;SDS011;46804;51.786;19.520;2022-07-23T10:13:00;8.85;;;5.47;;
60935;SDS011;46804;51.786;19.520;2022-07-23T10:17:21;7.72;;;5.15;;
60935;SDS011;46804;51.786;19.520;2022-07-23T10:21:24;9.43;;;5.47;;
60935;SDS011;46804;51.786;19.520;2022-07-23T10:25:40;6.88;;;5.30;;
60935;SDS011;46804;51.786;19.520;2022-07-23T10:29:52;7.90;;;5.32;;
60935;SDS011;46804;51.786;19.520;2022-07-23T10:38:18;7.00;;;5.00;;
60935;SDS011;46804;51.786;19.520;2022-07-23T10:42:26;6.70;;;5.55;;
60935;SDS011;46804;51.786;19.520;2022-07-23T10:46:34;6.30;;;5.65;;
60935;SDS011;46804;51.786;19.520;2022-07-23T10:50:35;8.03;;;6.07;;
60935;SDS011;46804;51.786;19.520;2022-07-23T10:54:36;6.97;;;5.50;;
60935;SDS011;46804;51.786;19.520;2022-07-23T10:58:46;11.47;;;5.57;;
60935;SDS011;46804;51.786;19.520;2022-07-23T11:02:49;9.93;;;6.28;;
60935;SDS011;46804;51.786;19.520;2022-07-23T11:15:11;7.90;;;5.72;;
60935;SDS011;46804;51.786;19.520;2022-07-23T11:19:14;11.25;;;5.93;;
60935;SDS011;46804;51.786;19.520;2022-07-23T11:23:15;9.60;;;5.37;;
60935;SDS011;46804;51.786;19.520;2022-07-23T11:27:16;9.10;;;5.73;;
60935;SDS011;46804;51.786;19.520;2022-07-23T11:31:56;8.25;;;6.10;;
60935;SDS011;46804;51.786;19.520;2022-07-23T11:36:02;10.90;;;6.30;;
60935;SDS011;46804;51.786;19.520;2022-07-23T11:40:13;11.85;;;6.18;;
60935;SDS011;46804;51.786;19.520;2022-07-23T11:48:30;11.05;;;6.45;;
60935;SDS011;46804;51.786;19.520;2022-07-23T11:52:31;9.70;;;6.60;;
60935;SDS011;46804;51.786;19.520;2022-07-23T11:56:32;8.40;;;5.90;;
60935;SDS011;46804;51.786;19.520;2022-07-23T12:00:33;8.33;;;6.30;;
60935;SDS011;46804;51.786;19.520;2022-07-23T12:04:45;15.30;;;6.63;;
60935;SDS011;46804;51.786;19.520;2022-07-23T12:08:48;10.07;;;6.20;;
60935;SDS011;46804;51.786;19.520;2022-07-23T12:12:53;8.00;;;6.07;;
60935;SDS011;46804;51.786;19.520;2022-07-23T12:17:07;8.27;;;6.20;;
60935;SDS011;46804;51.786;19.520;2022-07-23T12:21:11;9.35;;;6.45;;
60935;SDS011;46804;51.786;19.520;2022-07-23T12:25:14;11.43;;;6.13;;
60935;SDS011;46804;51.786;19.520;2022-07-23T12:29:19;9.48;;;6.40;;
60935;SDS011;46804;51.786;19.520;2022-07-23T12:33:33;8.95;;;6.93;;
60935;SDS011;46804;51.786;19.520;2022-07-23T12:37:37;11.38;;;6.43;;
60935;SDS011;46804;51.786;19.520;2022-07-23T12:41:52;9.55;;;6.10;;
60935;SDS011;46804;51.786;19.520;2022-07-23T12:46:02;10.85;;;6.10;;
60935;SDS011;46804;51.786;19.520;2022-07-23T12:50:04;8.20;;;6.10;;
60935;SDS011;46804;51.786;19.520;2022-07-23T12:54:06;13.20;;;6.47;;
60935;SDS011;46804;51.786;19.520;2022-07-23T12:58:16;29.70;;;6.90;;
60935;SDS011;46804;51.786;19.520;2022-07-23T13:02:19;29.65;;;5.90;;
60935;SDS011;46804;51.786;19.520;2022-07-23T13:06:19;29.13;;;6.13;;
60935;SDS011;46804;51.786;19.520;2022-07-23T13:10:20;24.23;;;6.35;;
60935;SDS011;46804;51.786;19.520;2022-07-23T13:14:21;12.77;;;5.60;;
60935;SDS011;46804;51.786;19.520;2022-07-23T13:18:22;13.68;;;5.20;;
60935;SDS011;46804;51.786;19.520;2022-07-23T13:22:23;12.73;;;5.00;;
60935;SDS011;46804;51.786;19.520;2022-07-23T13:26:23;11.23;;;5.70;;
60935;SDS011;46804;51.786;19.520;2022-07-23T13:30:25;8.43;;;4.50;;
60935;SDS011;46804;51.786;19.520;2022-07-23T13:34:26;8.27;;;4.60;;
60935;SDS011;46804;51.786;19.520;2022-07-23T13:38:26;11.52;;;4.50;;
60935;SDS011;46804;51.786;19.520;2022-07-23T13:42:27;7.55;;;4.43;;
60935;SDS011;46804;51.786;19.520;2022-07-23T13:46:28;8.35;;;4.70;;
60935;SDS011;46804;51.786;19.520;2022-07-23T13:50:28;7.93;;;4.80;;
60935;SDS011;46804;51.786;19.520;2022-07-23T13:54:29;8.88;;;4.63;;
60935;SDS011;46804;51.786;19.520;2022-07-23T13:58:30;6.85;;;4.63;;
60935;SDS011;46804;51.786;19.520;2022-07-23T14:02:31;7.15;;;4.65;;
60935;SDS011;46804;51.786;19.520;2022-07-23T14:06:31;5.65;;;4.32;;
60935;SDS011;46804;51.786;19.520;2022-07-23T14:10:32;8.55;;;4.68;;
60935;SDS011;46804;51.786;19.520;2022-07-23T14:14:33;6.65;;;4.32;;
60935;SDS011;46804;51.786;19.520;2022-07-23T14:18:34;6.30;;;4.43;;
60935;SDS011;46804;51.786;19.520;2022-07-23T14:22:35;6.85;;;4.45;;
60935;SDS011;46804;51.786;19.520;2022-07-23T14:26:37;7.28;;;4.75;;
60935;SDS011;46804;51.786;19.520;2022-07-23T14:30:37;7.53;;;4.63;;
60935;SDS011;46804;51.786;19.520;2022-07-23T14:34:38;7.25;;;5.05;;
60935;SDS011;46804;51.786;19.520;2022-07-23T14:38:38;6.63;;;4.95;;
60935;SDS011;46804;51.786;19.520;2022-07-23T14:42:39;7.07;;;4.88;;
60935;SDS011;46804;51.786;19.520;2022-07-23T14:46:40;11.20;;;5.25;;
60935;SDS011;46804;51.786;19.520;2022-07-23T14:50:41;7.97;;;5.07;;
60935;SDS011;46804;51.786;19.520;2022-07-23T14:54:41;8.98;;;4.90;;
60935;SDS011;46804;51.786;19.520;2022-07-23T14:58:42;8.07;;;4.93;;
60935;SDS011;46804;51.786;19.520;2022-07-23T15:02:42;6.10;;;4.50;;
60935;SDS011;46804;51.786;19.520;2022-07-23T15:06:44;6.93;;;4.20;;
60935;SDS011;46804;51.786;19.520;2022-07-23T15:10:44;6.82;;;5.00;;
60935;SDS011;46804;51.786;19.520;2022-07-23T15:14:45;8.88;;;5.25;;
60935;SDS011;46804;51.786;19.520;2022-07-23T15:18:45;6.65;;;4.80;;
60935;SDS011;46804;51.786;19.520;2022-07-23T15:22:46;6.40;;;5.28;;
60935;SDS011;46804;51.786;19.520;2022-07-23T15:26:48;8.88;;;5.65;;
60935;SDS011;46804;51.786;19.520;2022-07-23T15:30:49;7.35;;;5.50;;
60935;SDS011;46804;51.786;19.520;2022-07-23T15:34:52;7.30;;;5.97;;
60935;SDS011;46804;51.786;19.520;2022-07-23T15:38:53;10.65;;;6.40;;
60935;SDS011;46804;51.786;19.520;2022-07-23T15:42:58;6.93;;;5.53;;
60935;SDS011;46804;51.786;19.520;2022-07-23T15:46:59;7.30;;;5.18;;
60935;SDS011;46804;51.786;19.520;2022-07-23T15:50:59;8.50;;;5.63;;
60935;SDS011;46804;51.786;19.520;2022-07-23T15:55:01;7.65;;;5.70;;
60935;SDS011;46804;51.786;19.520;2022-07-23T15:59:03;12.45;;;6.75;;
60935;SDS011;46804;51.786;19.520;2022-07-23T16:03:04;9.90;;;5.53;;
60935;SDS011;46804;51.786;19.520;2022-07-23T16:07:05;9.15;;;6.65;;
60935;SDS011;46804;51.786;19.520;2022-07-23T16:11:05;9.88;;;6.30;;
60935;SDS011;46804;51.786;19.520;2022-07-23T16:15:06;8.82;;;5.97;;
60935;SDS011;46804;51.786;19.520;2022-07-23T16:19:08;9.05;;;6.45;;
60935;SDS011;46804;51.786;19.520;2022-07-23T16:23:09;9.82;;;6.55;;
60935;SDS011;46804;51.786;19.520;2022-07-23T16:27:10;9.30;;;6.65;;
60935;SDS011;46804;51.786;19.520;2022-07-23T16:31:11;7.03;;;5.70;;
60935;SDS011;46804;51.786;19.520;2022-07-23T16:35:11;8.43;;;6.28;;
60935;SDS011;46804;51.786;19.520;2022-07-23T16:39:13;8.13;;;6.30;;
60935;SDS011;46804;51.786;19.520;2022-07-23T16:43:14;11.02;;;7.03;;
60935;SDS011;46804;51.786;19.520;2022-07-23T16:47:15;7.80;;;6.35;;
60935;SDS011;46804;51.786;19.520;2022-07-23T16:51:15;8.55;;;6.68;;
60935;SDS011;46804;51.786;19.520;2022-07-23T16:55:16;9.40;;;6.43;;
60935;SDS011;46804;51.786;19.520;2022-07-23T16:59:17;9.65;;;6.82;;
60935;SDS011;46804;51.786;19.520;2022-07-23T17:03:17;9.25;;;6.10;;
60935;SDS011;46804;51.786;19.520;2022-07-23T17:07:18;9.65;;;6.97;;
60935;SDS011;46804;51.786;19.520;2022-07-23T17:11:19;8.65;;;6.53;;
60935;SDS011;46804;51.786;19.520;2022-07-23T17:15:20;8.93;;;6.75;;
60935;SDS011;46804;51.786;19.520;2022-07-23T17:19:20;7.30;;;6.32;;
60935;SDS011;46804;51.786;19.520;2022-07-23T17:23:21;9.68;;;6.20;;
60935;SDS011;46804;51.786;19.520;2022-07-23T17:27:22;9.55;;;6.40;;
60935;SDS011;46804;51.786;19.520;2022-07-23T17:31:22;7.22;;;6.35;;
60935;SDS011;46804;51.786;19.520;2022-07-23T17:35:23;10.00;;;6.60;;
60935;SDS011;46804;51.786;19.520;2022-07-23T17:39:24;8.48;;;6.28;;
60935;SDS011;46804;51.786;19.520;2022-07-23T17:43:25;9.68;;;6.20;;
60935;SDS011;46804;51.786;19.520;2022-07-23T17:47:26;10.05;;;6.60;;
60935;SDS011;46804;51.786;19.520;2022-07-23T17:51:26;9.80;;;6.55;;
60935;SDS011;46804;51.786;19.520;2022-07-23T17:55:27;7.57;;;6.18;;
60935;SDS011;46804;51.786;19.520;2022-07-23T17:59:28;7.35;;;5.97;;
60935;SDS011;46804;51.786;19.520;2022-07-23T18:03:29;7.82;;;6.45;;
60935;SDS011;46804;51.786;19.520;2022-07-23T18:07:30;7.68;;;6.07;;
60935;SDS011;46804;51.786;19.520;2022-07-23T18:11:31;10.35;;;6.57;;
60935;SDS011;46804;51.786;19.520;2022-07-23T18:15:33;8.38;;;6.20;;
60935;SDS011;46804;51.786;19.520;2022-07-23T18:19:34;9.95;;;7.00;;
60935;SDS011;46804;51.786;19.520;2022-07-23T18:23:34;8.63;;;6.80;;
60935;SDS011;46804;51.786;19.520;2022-07-23T18:27:35;12.68;;;7.78;;
60935;SDS011;46804;51.786;19.520;2022-07-23T18:31:37;8.90;;;7.47;;
60935;SDS011;46804;51.786;19.520;2022-07-23T18:35:38;10.60;;;8.30;;
60935;SDS011;46804;51.786;19.520;2022-07-23T18:39:38;13.70;;;8.93;;
60935;SDS011;46804;51.786;19.520;2022-07-23T18:43:39;9.93;;;7.82;;
60935;SDS011;46804;51.786;19.520;2022-07-23T18:47:40;10.90;;;7.60;;
60935;SDS011;46804;51.786;19.520;2022-07-23T18:51:41;11.05;;;6.78;;
60935;SDS011;46804;51.786;19.520;2022-07-23T18:55:42;8.68;;;7.40;;
60935;SDS011;46804;51.786;19.520;2022-07-23T18:59:43;10.63;;;7.93;;
60935;SDS011;46804;51.786;19.520;2022-07-23T19:03:44;9.88;;;8.00;;
60935;SDS011;46804;51.786;19.520;2022-07-23T19:07:45;11.60;;;8.75;;
60935;SDS011;46804;51.786;19.520;2022-07-23T19:11:47;11.63;;;8.70;;
60935;SDS011;46804;51.786;19.520;2022-07-23T19:15:48;11.40;;;8.90;;
60935;SDS011;46804;51.786;19.520;2022-07-23T19:19:49;12.38;;;8.65;;
60935;SDS011;46804;51.786;19.520;2022-07-23T19:23:50;12.13;;;8.35;;
60935;SDS011;46804;51.786;19.520;2022-07-23T19:27:50;16.27;;;9.43;;
60935;SDS011;46804;51.786;19.520;2022-07-23T19:31:51;12.73;;;9.23;;
60935;SDS011;46804;51.786;19.520;2022-07-23T19:35:51;10.63;;;8.35;;
60935;SDS011;46804;51.786;19.520;2022-07-23T19:39:52;11.45;;;7.70;;
60935;SDS011;46804;51.786;19.520;2022-07-23T19:43:52;15.57;;;9.57;;
60935;SDS011;46804;51.786;19.520;2022-07-23T19:47:53;10.20;;;8.10;;
60935;SDS011;46804;51.786;19.520;2022-07-23T19:51:53;12.90;;;8.10;;
60935;SDS011;46804;51.786;19.520;2022-07-23T19:55:54;12.88;;;8.30;;
60935;SDS011;46804;51.786;19.520;2022-07-23T19:59:55;10.88;;;9.15;;
60935;SDS011;46804;51.786;19.520;2022-07-23T20:03:55;13.15;;;8.82;;
60935;SDS011;46804;51.786;19.520;2022-07-23T20:07:56;14.70;;;9.60;;
60935;SDS011;46804;51.786;19.520;2022-07-23T20:11:57;11.52;;;9.10;;
60935;SDS011;46804;51.786;19.520;2022-07-23T20:15:57;14.23;;;9.38;;
60935;SDS011;46804;51.786;19.520;2022-07-23T20:19:58;14.13;;;9.40;;
60935;SDS011;46804;51.786;19.520;2022-07-23T20:23:59;13.07;;;9.90;;
60935;SDS011;46804;51.786;19.520;2022-07-23T20:28:00;14.48;;;9.60;;
60935;SDS011;46804;51.786;19.520;2022-07-23T20:32:02;13.20;;;9.63;;
60935;SDS011;46804;51.786;19.520;2022-07-23T20:36:02;15.40;;;9.95;;
60935;SDS011;46804;51.786;19.520;2022-07-23T20:40:03;15.40;;;8.95;;
60935;SDS011;46804;51.786;19.520;2022-07-23T20:44:04;11.52;;;8.23;;
60935;SDS011;46804;51.786;19.520;2022-07-23T20:48:05;11.32;;;8.80;;
60935;SDS011;46804;51.786;19.520;2022-07-23T20:52:06;10.25;;;8.32;;
60935;SDS011;46804;51.786;19.520;2022-07-23T20:56:07;11.93;;;8.32;;
60935;SDS011;46804;51.786;19.520;2022-07-23T21:00:09;9.93;;;8.43;;
60935;SDS011;46804;51.786;19.520;2022-07-23T21:04:11;15.23;;;8.80;;
60935;SDS011;46804;51.786;19.520;2022-07-23T21:08:11;13.48;;;9.32;;
60935;SDS011;46804;51.786;19.520;2022-07-23T21:12:12;12.82;;;9.43;;
60935;SDS011;46804;51.786;19.520;2022-07-23T21:16:13;11.80;;;9.35;;
60935;SDS011;46804;51.786;19.520;2022-07-23T21:20:14;11.18;;;9.35;;
60935;SDS011;46804;51.786;19.520;2022-07-23T21:24:15;11.73;;;8.68;;
60935;SDS011;46804;51.786;19.520;2022-07-23T21:28:16;14.77;;;9.50;;
60935;SDS011;46804;51.786;19.520;2022-07-23T21:32:17;11.52;;;9.55;;
60935;SDS011;46804;51.786;19.520;2022-07-23T21:36:17;14.20;;;10.98;;
60935;SDS011;46804;51.786;19.520;2022-07-23T21:40:18;15.18;;;11.32;;
60935;SDS011;46804;51.786;19.520;2022-07-23T21:44:18;16.60;;;11.63;;
60935;SDS011;46804;51.786;19.520;2022-07-23T21:48:19;15.18;;;10.88;;
60935;SDS011;46804;51.786;19.520;2022-07-23T21:52:22;17.10;;;12.18;;
60935;SDS011;46804;51.786;19.520;2022-07-23T21:56:27;14.98;;;11.98;;
60935;SDS011;46804;51.786;19.520;2022-07-23T22:00:30;15.90;;;12.75;;
60935;SDS011;46804;51.786;19.520;2022-07-23T22:04:33;16.77;;;13.30;;
60935;SDS011;46804;51.786;19.520;2022-07-23T22:08:34;17.23;;;12.75;;
60935;SDS011;46804;51.786;19.520;2022-07-23T22:12:34;20.77;;;13.10;;
60935;SDS011;46804;51.786;19.520;2022-07-23T22:16:35;21.42;;;13.32;;
60935;SDS011;46804;51.786;19.520;2022-07-23T22:20:36;16.45;;;14.00;;
60935;SDS011;46804;51.786;19.520;2022-07-23T22:24:36;18.52;;;13.15;;
60935;SDS011;46804;51.786;19.520;2022-07-23T22:28:37;17.60;;;11.55;;
60935;SDS011;46804;51.786;19.520;2022-07-23T22:32:38;21.02;;;14.02;;
60935;SDS011;46804;51.786;19.520;2022-07-23T22:36:39;18.27;;;13.68;;
60935;SDS011;46804;51.786;19.520;2022-07-23T22:40:39;22.23;;;14.50;;
60935;SDS011;46804;51.786;19.520;2022-07-23T22:44:40;16.80;;;13.38;;
60935;SDS011;46804;51.786;19.520;2022-07-23T22:48:41;21.83;;;15.45;;
60935;SDS011;46804;51.786;19.520;2022-07-23T22:52:41;22.35;;;17.17;;
60935;SDS011;46804;51.786;19.520;2022-07-23T22:56:42;17.73;;;15.82;;
60935;SDS011;46804;51.786;19.520;2022-07-23T23:00:43;20.98;;;15.85;;
60935;SDS011;46804;51.786;19.520;2022-07-23T23:04:43;19.27;;;15.00;;
60935;SDS011;46804;51.786;19.520;2022-07-23T23:08:44;18.17;;;15.02;;
60935;SDS011;46804;51.786;19.520;2022-07-23T23:12:44;18.42;;;15.20;;
60935;SDS011;46804;51.786;19.520;2022-07-23T23:16:45;18.40;;;15.55;;
60935;SDS011;46804;51.786;19.520;2022-07-23T23:20:45;17.08;;;13.98;;
60935;SDS011;46804;51.786;19.520;2022-07-23T23:24:46;19.75;;;15.27;;
60935;SDS011;46804;51.786;19.520;2022-07-23T23:28:46;21.70;;;14.90;;
60935;SDS011;46804;51.786;19.520;2022-07-23T23:32:47;15.75;;;12.40;;
60935;SDS011;46804;51.786;19.520;2022-07-23T23:36:47;17.73;;;12.32;;
60935;SDS011;46804;51.786;19.520;2022-07-23T23:40:48;16.75;;;12.90;;
60935;SDS011;46804;51.786;19.520;2022-07-23T23:44:49;17.75;;;12.18;;
60935;SDS011;46804;51.786;19.520;2022-07-23T23:48:49;14.57;;;12.13;;
60935;SDS011;46804;51.786;19.520;2022-07-23T23:52:49;14.57;;;11.90;;
60935;SDS011;46804;51.786;19.520;2022-07-23T23:56:50;14.57;;;11.55;;
